Latest Weather Observations for Grafton AgRS

IDN60801

Issued at 5:05 pm EDT Wednesday 22 October 2014 (issued every 30 minutes, with the page automatically refreshed every 10 minutes)

About weather observations | Map of weather stations | Latest weather observations for NSW | Other Formats
Station Details ID: 058077 Name: GRAFTON RESEARCH STN Lat: -29.62 Lon: 152.96 Height: 25.0 m
Data from the previous 72 hours. | See also: Recent months for locations in New South Wales
Date/Time
EDT
Temp
°C
App
Temp
°C
Dew
Point
Rel
Hum
%
Delta-T
°C
Wind Press
QNH
hPa
Press
MSL
hPa
Rain
since 9 am
mm
Dir
 
Spd
km/h
Gust
km/h
Spd
kts
Gust
kts
22/05:00pm 22.2 19.8 12.7 55 5.4 ENE 17 22 9 12 - - 0.0
22/04:30pm 22.5 19.6 13.0 55 5.5 E 20 30 11 16 - - 0.0
22/04:00pm 23.3 21.7 13.8 55 5.5 ENE 15 22 8 12 - - 0.0
22/03:30pm 22.2 19.8 12.7 55 5.4 ENE 17 26 9 14 - - 0.0
22/03:00pm 23.7 21.4 13.0 51 6.2 E 17 28 9 15 - - 0.0
22/02:30pm 24.4 22.0 9.9 40 8.0 E 13 22 7 12 - - 0.0
22/02:00pm 24.0 22.4 10.3 42 7.6 ESE 9 20 5 11 - - 0.0
22/01:30pm 23.0 21.8 11.7 49 6.4 ESE 9 17 5 9 - - 0.0
22/01:00pm 22.3 20.6 12.3 53 5.7 SE 13 17 7 9 - - 0.0
22/12:30pm 22.4 20.4 11.5 50 6.1 ESE 13 20 7 11 - - 0.0
22/12:00pm 23.1 21.8 12.4 51 6.1 SE 11 17 6 9 - - 0.0
22/11:30am 22.7 21.8 13.7 56 5.2 SSE 11 19 6 10 - - 0.0
22/11:00am 21.8 20.0 12.1 54 5.5 ESE 13 24 7 13 - - 0.0
22/10:30am 21.8 20.7 13.2 58 4.9 S 11 17 6 9 - - 0.0
22/10:00am 19.9 18.2 12.4 62 4.2 S 13 19 7 10 - - 0.0
22/09:30am 19.3 18.5 12.8 66 3.7 SW 9 15 5 8 - - 0.0
22/09:00am 18.7 17.7 13.3 71 3.1 SW 11 15 6 8 - - 0.0
22/08:30am 17.0 16.2 14.1 83 1.7 SW 11 15 6 8 - - 0.0
22/08:00am 16.0 15.5 13.7 86 1.3 SW 9 13 5 7 - - 0.0
22/07:30am 15.6 14.3 13.8 89 1.0 W 13 17 7 9 - - 0.0
22/07:00am 14.3 14.6 13.3 94 0.6 WSW 4 7 2 4 - - 0.0
22/06:30am 13.8 12.6 12.7 93 0.6 W 11 13 6 7 - - 0.0
22/06:00am 13.9 13.1 12.8 93 0.6 W 9 13 5 7 - - 0.0
22/05:30am 14.4 13.5 13.6 95 0.4 WNW 11 15 6 8 - - 0.0
22/05:00am 14.5 14.2 13.2 92 0.7 W 7 7 4 4 - - 0.0
22/04:30am 14.6 14.2 13.1 91 0.8 SSW 7 11 4 6 - - 0.0
22/04:00am 15.1 14.0 13.1 88 1.1 SSE 11 17 6 9 - - 0.0
22/03:30am 15.1 13.9 12.8 86 1.3 S 11 17 6 9 - - 0.0
22/03:00am 15.4 14.6 12.9 85 1.4 S 9 13 5 7 - - 0.0
22/02:30am 15.1 14.9 13.0 87 1.2 SSW 6 9 3 5 - - 0.0
22/02:00am 15.5 14.8 13.2 86 1.3 S 9 15 5 8 - - 0.0
22/01:30am 15.8 14.6 12.9 83 1.6 S 11 15 6 8 - - 0.0
22/01:00am 15.9 14.8 13.0 83 1.6 S 11 17 6 9 - - 0.0
22/12:30am 15.5 14.1 13.3 87 1.2 SSE 13 17 7 9 - - 0.0
22/12:00am 15.0 14.2 13.0 88 1.1 S 9 13 5 7 - - 0.0
 
Date/Time
EDT
Temp
°C
App
Temp
°C
Dew
Point
Rel
Hum
%
Delta-T
°C
Wind Press
QNH
hPa
Press
MSL
hPa
Rain
since 9 am
mm
Dir
 
Spd
km/h
Gust
km/h
Spd
kts
Gust
kts
21/11:30pm 14.9 14.4 12.6 86 1.3 S 7 9 4 5 - - 0.0
21/11:00pm 15.5 14.0 13.0 85 1.4 SSE 13 19 7 10 - - 0.0
21/10:30pm 16.2 14.5 13.5 84 1.5 SE 15 19 8 10 - - 0.0
21/10:00pm 16.6 14.5 12.4 76 2.3 SSE 15 19 8 10 - - 0.0
21/09:30pm 17.2 13.9 11.7 70 3.0 ESE 20 26 11 14 - - 0.0
21/09:00pm 17.5 15.7 12.0 70 3.0 SSE 13 19 7 10 - - 0.0
21/08:30pm 17.6 14.9 11.8 69 3.2 SE 17 24 9 13 - - 0.0
21/08:00pm 17.7 14.8 11.0 65 3.6 SE 17 26 9 14 - - 0.0
21/07:30pm 17.5 14.5 10.6 64 3.7 SE 17 22 9 12 - - 0.0
21/07:00pm 17.8 15.5 11.8 68 3.3 ESE 15 22 8 12 - - 0.0
21/06:30pm 18.7 15.6 12.2 66 3.6 ESE 20 26 11 14 - - 0.0
21/06:00pm 19.5 15.3 11.0 58 4.6 SE 24 32 13 17 - - 0.0
21/05:30pm 20.6 16.3 10.7 53 5.4 SE 24 33 13 18 - - 0.0
21/05:00pm 20.6 15.7 10.1 51 5.7 ESE 26 37 14 20 - - 0.0
21/04:30pm 20.8 16.4 10.3 51 5.7 ESE 24 33 13 18 - - 0.0
21/04:00pm 21.0 17.2 11.1 53 5.5 SE 22 33 12 18 - - 0.0
21/03:30pm 22.6 18.0 12.3 52 5.8 ESE 28 39 15 21 - - 0.0
21/03:00pm 22.3 18.1 12.3 53 5.7 SSE 26 35 14 19 - - 0.0
21/02:30pm 21.2 16.4 11.8 55 5.3 SE 28 39 15 21 - - 0.0
21/02:00pm 21.7 16.8 11.4 52 5.7 SE 28 37 15 20 - - 0.0
21/01:30pm 21.7 17.0 12.0 54 5.5 SE 28 33 15 18 - - 0.0
21/01:00pm 22.5 18.6 10.9 48 6.4 SSE 22 30 12 16 - - 0.0
21/12:30pm 22.3 18.5 11.1 49 6.2 SE 22 32 12 17 - - 0.0
21/12:00pm 21.7 17.5 11.1 51 5.9 SSE 24 32 13 17 - - 0.0
21/11:30am 21.4 16.3 10.6 50 5.9 SSE 28 33 15 18 - - 0.0
21/11:00am 21.0 17.3 11.6 55 5.2 SSE 22 33 12 18 - - 0.0
21/10:30am 20.3 16.0 12.0 59 4.6 SSE 26 37 14 20 - - 0.0
21/10:00am 19.8 15.3 11.3 58 4.7 SSE 26 37 14 20 - - 0.0
21/09:30am 19.6 15.1 11.4 59 4.5 SSE 26 35 14 19 - - 0.0
21/09:00am 18.8 13.8 12.1 65 3.7 SSE 30 41 16 22 - - 0.0
21/08:30am 18.9 15.5 12.4 66 3.6 S 22 32 12 17 - - 0.0
21/08:00am 18.8 15.0 12.3 66 3.6 S 24 30 13 16 - - 0.0
21/07:30am 18.6 16.2 12.8 69 3.3 S 17 22 9 12 - - 0.0
21/07:00am 18.1 16.5 12.8 71 3.0 S 13 20 7 11 - - 0.0
21/06:30am 17.9 16.1 13.2 74 2.6 S 15 20 8 11 - - 0.0
21/06:00am 17.8 16.4 13.5 76 2.4 S 13 19 7 10 - - 0.0
21/05:30am 17.9 15.8 13.6 76 2.4 S 17 20 9 11 - - 0.0
21/05:00am 18.1 16.5 13.8 76 2.5 S 15 20 8 11 - - 0.0
21/04:30am 18.2 15.8 13.7 75 2.6 S 19 24 10 13 - - 0.0
21/04:00am 18.2 15.8 13.9 76 2.5 SSE 19 28 10 15 - - 0.0
21/03:30am 18.2 17.0 14.1 77 2.4 S 13 17 7 9 - - 0.0
21/03:00am 18.2 16.7 14.1 77 2.4 S 15 19 8 10 - - 0.0
21/02:30am 18.4 16.5 14.1 76 2.5 S 17 22 9 12 - - 0.0
21/02:00am 18.5 16.2 14.0 75 2.6 S 19 24 10 13 - - 0.0
21/01:30am 18.6 16.3 14.1 75 2.6 S 19 26 10 14 - - 0.0
21/01:00am 18.6 16.7 14.3 76 2.5 S 17 22 9 12 - - 0.0
21/12:30am 18.7 16.3 14.4 76 2.5 S 20 30 11 16 - - 0.0
21/12:00am 18.7 16.5 14.4 76 2.5 S 19 28 10 15 - - 0.0
 
Date/Time
EDT
Temp
°C
App
Temp
°C
Dew
Point
Rel
Hum
%
Delta-T
°C
Wind Press
QNH
hPa
Press
MSL
hPa
Rain
since 9 am
mm
Dir
 
Spd
km/h
Gust
km/h
Spd
kts
Gust
kts
20/11:30pm 18.4 16.0 13.9 75 2.6 S 19 28 10 15 - - 0.0
20/11:00pm 18.3 16.8 13.2 72 2.9 S 13 20 7 11 - - 0.0
20/10:30pm 18.5 16.7 13.4 72 2.9 S 15 20 8 11 - - 0.0
20/10:00pm 18.2 17.5 13.1 72 2.9 S 9 15 5 8 - - 0.0
20/09:30pm 18.6 17.5 13.0 70 3.2 S 11 17 6 9 - - 0.0
20/09:00pm 18.6 17.4 12.8 69 3.3 SSW 11 15 6 8 - - 0.0
20/08:30pm 19.2 16.6 13.2 68 3.4 SSE 19 24 10 13 - - 0.0
20/08:00pm 19.2 16.6 13.2 68 3.4 SSE 19 24 10 13 - - 0.0
20/07:30pm 19.9 16.9 13.6 67 3.6 SSE 22 33 12 18 - - 0.0
20/07:00pm 20.0 16.2 13.7 67 3.6 SE 26 32 14 17 - - 0.0
20/06:30pm 20.6 15.6 14.0 66 3.8 SE 33 50 18 27 - - 0.0
20/06:00pm 21.7 15.9 13.9 61 4.5 SE 37 48 20 26 - - 0.0
20/05:30pm 21.9 15.2 14.5 63 4.3 SSE 43 54 23 29 - - 0.0
20/05:14pm 22.0 17.6 15.1 65 4.1 SE 32 50 17 27 - - 0.0
20/05:00pm 22.7 18.2 15.5 64 4.3 SE 33 46 18 25 - - 0.0
20/04:35pm 22.8 17.5 15.4 63 4.4 ESE 37 56 20 30 - - 0.0
20/04:30pm 23.1 17.6 15.7 63 4.5 ESE 39 50 21 27 - - 0.0
20/04:00pm 23.7 18.7 16.0 62 4.7 SE 37 50 20 27 - - 0.0
20/03:30pm 24.6 19.3 15.2 55 5.7 SE 37 56 20 30 - - 0.0
20/03:09pm 25.8 19.9 13.6 47 7.2 SE 37 56 20 30 - - 0.0
20/03:00pm 25.8 18.5 11.6 41 8.1 SE 41 54 22 29 - - 0.0
20/02:30pm 28.1 21.9 12.8 38 9.0 ESE 37 50 20 27 - - 0.0
20/02:20pm 28.8 21.1 11.4 34 10.0 ESE 43 50 23 27 - - 0.0
20/02:00pm 28.5 26.0 12.4 37 9.4 ESE 17 24 9 13 - - 0.0
20/01:30pm 28.2 27.0 14.1 42 8.5 E 13 22 7 12 - - 0.0
20/01:00pm 27.3 24.9 12.5 40 8.6 ESE 17 24 9 13 - - 0.0
20/12:30pm 26.3 25.5 14.1 47 7.3 E 11 17 6 9 - - 0.0
20/12:00pm 25.7 25.8 15.4 53 6.2 E 9 17 5 9 - - 0.0
20/11:30am 24.4 24.0 14.2 53 6.0 E 9 15 5 8 - - 0.0
20/11:00am 23.5 23.3 13.7 54 5.7 ESE 7 13 4 7 - - 0.0
20/10:30am 22.5 22.3 13.6 57 5.2 SSE 7 11 4 6 - - 0.0
20/10:00am 20.9 20.5 13.1 61 4.5 S 7 13 4 7 - - 0.0
20/09:30am 19.9 19.7 12.9 64 4.0 SSE 6 11 3 6 - - 0.0
20/09:00am 18.5 18.0 12.5 68 3.3 NW 7 13 4 7 - - 0.0
20/08:30am 17.0 17.7 13.5 80 2.0 W 2 9 1 5 - - 0.0
20/08:00am 14.9 14.6 12.6 86 1.3 W 6 9 3 5 - - 0.0
20/07:30am 13.3 13.9 12.0 92 0.7 CALM 0 0 0 0 - - 0.0
20/07:00am 11.6 11.9 11.0 96 0.3 CALM 0 0 0 0 - - 0.0
20/06:30am 11.1 10.2 10.5 96 0.3 NW 6 7 3 4 - - 0.0
20/06:00am 11.3 11.6 10.8 97 0.3 CALM 0 0 0 0 - - 0.0
20/05:30am 11.3 11.5 10.7 96 0.3 CALM 0 0 0 0 - - 0.0
20/05:00am 11.5 11.7 10.6 94 0.5 CALM 0 0 0 0 - - 0.0
20/04:30am 11.9 11.9 11.0 94 0.5 NW 2 6 1 3 - - 0.0
20/04:00am 12.0 12.3 10.9 93 0.6 CALM 0 0 0 0 - - 0.0
20/03:30am 12.4 11.5 11.3 93 0.6 NW 7 9 4 5 - - 0.0
20/03:00am 12.3 12.7 11.4 94 0.5 CALM 0 0 0 0 - - 0.0
20/02:30am 12.6 13.0 11.3 92 0.7 CALM 0 0 0 0 - - 0.0
20/02:00am 13.4 12.7 11.5 88 1.0 WNW 6 9 3 5 - - 0.0
20/01:30am 13.8 13.1 11.5 86 1.2 WNW 6 7 3 4 - - 0.0
20/01:00am 14.2 13.7 12.1 87 1.1 WNW 6 7 3 4 - - 0.0
20/12:30am 14.4 14.7 12.3 87 1.1 WNW 2 6 1 3 - - 0.0
20/12:00am 14.7 15.5 12.6 87 1.1 CALM 0 0 0 0 - - 0.0
 
Date/Time
EDT
Temp
°C
App
Temp
°C
Dew
Point
Rel
Hum
%
Delta-T
°C
Wind Press
QNH
hPa
Press
MSL
hPa
Rain
since 9 am
mm
Dir
 
Spd
km/h
Gust
km/h
Spd
kts
Gust
kts
19/11:30pm 15.2 15.9 12.3 83 1.6 CALM 0 0 0 0 - - 0.0
19/11:00pm 15.7 16.4 12.1 79 2.0 CALM 0 0 0 0 - - 0.0
19/10:30pm 15.7 16.4 12.1 79 2.0 CALM 0 0 0 0 - - 0.0
19/10:00pm 15.9 16.5 11.9 77 2.2 CALM 0 0 0 0 - - 0.0
19/09:30pm 15.7 16.3 11.9 78 2.1 CALM 0 0 0 0 - - 0.0
19/09:00pm 16.2 16.8 12.0 76 2.3 CALM 0 0 0 0 - - 0.0
19/08:30pm 16.6 16.6 11.3 71 2.9 ENE 2 6 1 3 - - 0.0
19/08:00pm 17.5 16.8 11.5 68 3.3 ENE 6 7 3 4 - - 0.0
19/07:30pm 18.2 17.0 11.5 65 3.7 ENE 9 13 5 7 - - 0.0
19/07:00pm 19.0 17.4 11.6 62 4.1 ENE 11 17 6 9 - - 0.0
19/06:30pm 20.2 18.1 11.1 56 5.0 ENE 13 20 7 11 - - 0.0
19/06:00pm 21.2 18.7 11.2 53 5.5 E 15 20 8 11 - - 0.0
19/05:30pm 22.1 19.3 11.2 50 6.1 ENE 17 30 9 16 - - 0.0

Other Formats:

Comma delimited format used in spreadsheet applications
http://www.bom.gov.au/fwo/IDN60801/IDN60801.95571.axf

JavaScript Object Notation format (JSON) in row-major order
http://www.bom.gov.au/fwo/IDN60801/IDN60801.95571.json